Time;durP1;ratioP1;P1;durP2;ratioP2;P2;SDS_P1;SDS_P2;PMS_P1;PMS_P2;Temp;Humidity;BMP_temperature;BMP_pressure;BME280_temperature;BME280_humidity;BME280_pressure;Samples;Min_cycle;Max_cycle;Signal;HPM_P1;HPM_P2
2024/01/08 00:04:40;;;;;;;4.90;4.50;;;-1.70;99.90;;;-1.51;77.00;98315.31;10426873;28;20232;-66
2024/01/08 00:09:43;;;;;;;4.90;4.50;;;-1.70;99.90;;;-1.30;77.75;98314.28;10410660;28;20617;-66
2024/01/08 00:14:47;;;;;;;4.87;4.47;;;-1.60;99.90;;;-1.18;75.44;98310.59;10443767;28;20225;-66
2024/01/08 00:19:50;;;;;;;5.37;4.93;;;-1.50;99.90;;;-1.32;76.04;98318.22;10411192;28;20229;-66
2024/01/08 00:24:53;;;;;;;5.00;4.60;;;-1.60;99.90;;;-1.17;75.54;98320.81;10413053;28;20617;-66
2024/01/08 00:29:58;;;;;;;5.20;4.80;;;-1.50;99.90;;;-1.28;76.40;98318.72;10413202;28;20347;-66
2024/01/08 00:35:01;;;;;;;5.30;4.90;;;-1.50;99.90;;;-1.37;75.32;98323.63;10423366;28;20220;-66
2024/01/08 00:40:06;;;;;;;4.83;4.43;;;-1.60;99.90;;;-1.31;75.16;98312.50;10450034;28;20229;-65
2024/01/08 00:45:11;;;;;;;5.37;4.90;;;-1.50;99.90;;;-1.37;75.98;98318.63;10412186;28;20223;-66
2024/01/08 00:50:14;;;;;;;5.00;4.70;;;-1.60;99.90;;;-1.51;76.13;98325.34;10410667;28;20253;-65
2024/01/08 00:55:18;;;;;;;5.60;5.20;;;-1.70;99.90;;;-1.41;77.11;98310.59;10411912;28;20673;-66
2024/01/08 01:00:22;;;;;;;5.27;4.87;;;-1.70;99.90;;;-1.37;75.85;98318.63;10408372;28;20226;-66
2024/01/08 01:05:25;;;;;;;5.63;5.13;;;-1.60;99.90;;;-1.59;77.13;98327.00;10411582;28;20229;-65
2024/01/08 01:10:29;;;;;;;4.60;4.30;;;-1.70;99.90;;;-1.50;77.12;98317.97;10414802;28;20236;-66
2024/01/08 01:15:33;;;;;;;5.67;5.17;;;-1.70;99.90;;;-1.64;76.70;98328.97;10413785;28;20225;-66
2024/01/08 01:20:36;;;;;;;5.30;4.90;;;-1.80;99.90;;;-1.58;77.48;98332.16;10412249;28;20221;-65
2024/01/08 01:25:39;;;;;;;5.67;5.27;;;-1.80;99.90;;;-1.40;75.96;98332.44;10413171;28;20225;-66
2024/01/08 01:30:44;;;;;;;5.13;4.73;;;-1.70;99.90;;;-1.58;75.78;98333.78;10408657;28;20227;-67
2024/01/08 01:35:47;;;;;;;5.77;5.27;;;-1.70;99.90;;;-1.27;76.08;98339.69;10412853;28;20617;-66
2024/01/08 01:40:50;;;;;;;5.20;4.80;;;-1.60;99.90;;;-1.03;73.55;98329.81;10410829;28;20236;-66
2024/01/08 01:45:57;;;;;;;5.73;5.33;;;-1.40;99.90;;;-1.31;74.77;98333.44;10415973;28;20737;-65
2024/01/08 01:51:03;;;;;;;5.97;5.37;;;-1.60;99.90;;;-1.22;73.98;98331.06;10409657;28;20232;-65
2024/01/08 01:56:07;;;;;;;5.77;5.27;;;-1.60;99.90;;;-1.22;75.06;98336.06;10468415;28;20226;-66
2024/01/08 02:01:13;;;;;;;5.23;4.83;;;-1.50;99.90;;;-1.25;75.25;98340.75;10482703;28;20318;-66
2024/01/08 02:06:19;;;;;;;5.90;5.47;;;-1.50;99.90;;;-1.22;75.78;98334.44;10475236;28;20251;-66
2024/01/08 02:11:22;;;;;;;5.80;5.30;;;-1.50;99.90;;;-1.13;75.17;98337.06;10466594;28;20357;-66
2024/01/08 02:16:27;;;;;;;5.43;5.03;;;-1.50;99.90;;;-1.23;74.94;98326.75;10465462;28;20776;-67
2024/01/08 02:21:30;;;;;;;6.13;5.63;;;-1.50;99.90;;;-1.16;75.32;98324.19;10405965;28;20295;-66
2024/01/08 02:26:36;;;;;;;6.07;5.67;;;-1.50;99.90;;;-1.23;74.50;98329.25;10415682;28;21803;-67
2024/01/08 02:31:40;;;;;;;6.83;6.33;;;-1.50;99.90;;;-1.03;74.75;98324.81;10480935;28;20220;-67
2024/01/08 02:36:43;;;;;;;6.30;5.70;;;-1.30;99.90;;;-1.28;74.36;98322.88;10474150;28;20299;-67
2024/01/08 02:41:47;;;;;;;6.20;5.80;;;-1.50;99.90;;;-1.24;75.79;98309.94;10485347;28;20708;-67
2024/01/08 02:46:50;;;;;;;6.07;5.67;;;-1.50;99.90;;;-1.30;74.47;98314.28;10480613;28;20846;-66
2024/01/08 02:51:53;;;;;;;6.23;5.80;;;-1.50;99.90;;;-1.09;74.99;98316.59;10483107;28;20613;-65
2024/01/08 02:57:03;;;;;;;5.30;4.97;;;-1.50;99.90;;;-1.39;72.68;98315.03;10486419;28;20219;-65
2024/01/08 03:02:06;;;;;;;5.63;5.23;;;-1.50;99.90;;;-1.36;73.87;98329.53;10482830;28;20310;-65
2024/01/08 03:07:09;;;;;;;5.60;5.17;;;-1.50;99.90;;;-1.38;73.13;98325.97;10439480;28;20317;-68
2024/01/08 03:12:14;;;;;;;5.80;5.30;;;-1.50;99.90;;;-1.46;73.84;98327.66;10413989;28;20378;-67
2024/01/08 03:17:18;;;;;;;5.43;5.07;;;-1.60;99.90;;;-1.29;74.73;98329.47;10420703;28;20262;-68
2024/01/08 03:22:21;;;;;;;5.10;4.70;;;-1.60;99.90;;;-0.89;71.06;98335.44;10416851;28;20315;-66
2024/01/08 03:27:25;;;;;;;5.50;5.07;;;-1.20;99.90;;;-1.26;72.14;98331.41;10415781;28;20711;-67
2024/01/08 03:32:29;;;;;;;5.43;5.00;;;-1.50;99.90;;;-1.20;72.86;98339.63;10416706;28;20750;-67
2024/01/08 03:37:32;;;;;;;5.33;4.93;;;-1.50;99.90;;;-1.40;71.81;98333.31;10420304;28;20287;-66
2024/01/08 03:42:37;;;;;;;5.47;4.97;;;-1.60;99.90;;;-1.06;71.63;98341.13;10417493;28;20792;-64
2024/01/08 03:47:40;;;;;;;4.60;4.30;;;-1.50;99.90;;;-1.22;71.38;98356.13;10416008;28;20225;-66
2024/01/08 03:52:43;;;;;;;5.23;4.90;;;-1.50;99.90;;;-1.31;71.41;98352.63;10418336;28;20224;-66
2024/01/08 03:57:48;;;;;;;4.70;4.40;;;-1.50;99.90;;;-1.44;72.22;98353.75;10417183;28;20232;-67
2024/01/08 04:02:52;;;;;;;5.50;5.10;;;-1.70;99.90;;;-1.46;71.31;98357.72;10450831;28;20233;-67
2024/01/08 04:07:55;;;;;;;5.23;4.83;;;-1.70;99.90;;;-1.21;72.68;98357.91;10487384;28;20654;-67
2024/01/08 04:13:00;;;;;;;5.87;5.37;;;-1.60;99.90;;;-1.43;73.22;98352.13;10483976;28;20316;-67
2024/01/08 04:18:04;;;;;;;5.47;5.07;;;-1.70;99.90;;;-1.37;71.79;98353.72;10482075;28;20691;-67
2024/01/08 04:23:07;;;;;;;5.10;4.80;;;-1.60;99.90;;;-1.69;71.73;98351.75;10469245;28;20302;-66
2024/01/08 04:28:12;;;;;;;5.70;5.33;;;-1.80;99.90;;;-1.29;71.07;98352.03;10471938;28;20657;-67
2024/01/08 04:33:15;;;;;;;6.10;5.60;;;-1.70;99.90;;;-1.34;72.29;98368.22;10453587;28;20228;-66
2024/01/08 04:38:18;;;;;;;6.27;5.77;;;-1.60;99.90;;;-1.25;70.35;98361.69;10482344;28;20244;-66
2024/01/08 04:43:23;;;;;;;6.07;5.67;;;-1.60;99.90;;;-1.21;71.66;98362.91;10485792;28;20228;-64
2024/01/08 04:48:26;;;;;;;6.10;5.60;;;-1.50;99.90;;;-1.34;71.14;98362.28;10481080;28;20232;-65
2024/01/08 04:53:29;;;;;;;6.20;5.70;;;-1.60;99.90;;;-1.49;71.95;98372.38;10483209;28;20229;-67
2024/01/08 04:58:34;;;;;;;5.70;5.30;;;-1.70;99.90;;;-1.71;73.86;98378.25;10479730;28;20784;-66
2024/01/08 05:03:37;;;;;;;6.33;5.83;;;-1.80;99.90;;;-1.42;73.00;98377.38;10457503;28;20227;-67
2024/01/08 05:08:40;;;;;;;5.80;5.40;;;-1.70;99.90;;;-1.44;72.07;98381.31;10479095;28;20315;-67
2024/01/08 05:13:45;;;;;;;6.23;5.73;;;-1.70;99.90;;;-1.62;72.85;98384.28;10457452;28;20344;-68
2024/01/08 05:18:48;;;;;;;6.83;6.33;;;-1.80;99.90;;;-1.39;72.97;98385.22;10411661;28;20224;-66
2024/01/08 05:23:52;;;;;;;8.53;7.23;;;-1.70;99.90;;;-1.45;70.92;98389.56;10421479;28;20225;-68
2024/01/08 05:28:57;;;;;;;6.37;5.97;;;-1.70;99.90;;;-1.60;71.48;98391.25;10477192;28;20323;-67
2024/01/08 05:34:03;;;;;;;6.50;6.00;;;-1.70;99.90;;;-1.63;72.59;98393.44;10480542;28;20224;-69
2024/01/08 05:39:06;;;;;;;6.27;5.77;;;-1.90;99.90;;;-1.80;70.94;98388.16;10418327;28;20299;-66
2024/01/08 05:44:11;;;;;;;6.97;6.37;;;-2.00;99.90;;;-1.84;71.41;98391.91;10418695;28;20315;-67
2024/01/08 05:49:14;;;;;;;6.93;6.33;;;-2.00;99.90;;;-1.82;71.97;98389.56;10433111;28;20259;-66
2024/01/08 05:54:17;;;;;;;6.80;6.20;;;-2.00;99.90;;;-1.92;72.99;98397.66;10494609;28;20638;-66
2024/01/08 05:59:22;;;;;;;6.70;6.17;;;-2.00;99.90;;;-1.55;70.87;98389.25;10498930;28;20231;-66
2024/01/08 06:04:26;;;;;;;7.33;6.63;;;-1.80;99.90;;;-1.71;72.71;98399.19;10497577;28;20233;-67
2024/01/08 06:09:29;;;;;;;6.87;6.23;;;-1.90;99.90;;;-1.72;72.42;98396.50;10414750;28;20225;-66
2024/01/08 06:14:34;;;;;;;6.53;5.93;;;-2.00;99.90;;;-1.93;72.07;98403.38;10418319;28;20227;-66
2024/01/08 06:19:37;;;;;;;7.37;6.77;;;-2.10;99.90;;;-1.88;72.96;98409.81;10424511;28;20733;-68
2024/01/08 06:24:41;;;;;;;6.60;6.10;;;-2.10;99.90;;;-1.94;70.31;98403.22;10447102;28;20235;-66
2024/01/08 06:29:45;;;;;;;7.00;6.43;;;-2.10;99.90;;;-1.74;71.77;98405.47;10473318;28;20691;-66
2024/01/08 06:34:49;;;;;;;6.73;6.10;;;-2.10;99.90;;;-1.96;72.58;98408.06;10473465;28;20227;-66
2024/01/08 06:39:52;;;;;;;6.50;6.00;;;-2.10;99.90;;;-1.64;70.20;98398.25;10476951;28;20228;-65
2024/01/08 06:44:56;;;;;;;6.60;5.93;;;-2.00;99.90;;;-1.74;70.38;98413.00;10456179;28;20225;-68
2024/01/08 06:49:59;;;;;;;6.83;6.23;;;-2.00;99.90;;;-1.85;70.56;98414.28;10477084;28;20224;-67
2024/01/08 06:55:04;;;;;;;6.50;6.00;;;-2.10;99.90;;;-1.67;72.15;98412.94;10409645;28;20226;-67
2024/01/08 07:00:10;;;;;;;6.87;6.27;;;-2.00;99.90;;;-1.70;70.78;98420.13;10465033;28;20235;-67
2024/01/08 07:05:15;;;;;;;6.40;5.90;;;-1.80;99.90;;;-1.83;70.85;98433.78;10475692;28;20968;-67
2024/01/08 07:10:18;;;;;;;6.57;6.07;;;-2.10;99.90;;;-1.89;70.64;98427.16;10476497;28;20255;-67
2024/01/08 07:15:39;;;;;;;6.57;6.07;;;-2.10;99.90;;;-1.89;70.68;98424.66;10478904;28;20739;-65
2024/01/08 07:20:44;;;;;;;6.63;6.13;;;-2.10;99.90;;;-1.79;70.64;98432.50;10456490;28;20228;-67
2024/01/08 07:25:47;;;;;;;6.83;6.30;;;-2.00;99.90;;;-1.84;71.08;98428.59;10476156;28;20605;-67
2024/01/08 07:30:51;;;;;;;6.73;6.07;;;-2.10;99.90;;;-2.02;70.83;98429.91;10450398;28;20725;-65
2024/01/08 07:35:54;;;;;;;6.47;5.97;;;-2.20;99.90;;;-1.83;69.16;98438.78;10424703;28;20291;-67
2024/01/08 07:40:59;;;;;;;5.60;5.20;;;-2.10;99.90;;;-1.83;69.22;98441.28;10410717;28;20226;-66
2024/01/08 07:46:04;;;;;;;6.00;5.50;;;-2.10;99.90;;;-1.90;69.70;98448.81;10415637;28;20230;-66
2024/01/08 07:51:07;;;;;;;5.80;5.40;;;-2.10;99.90;;;-1.93;68.57;98461.00;10453987;28;20275;-67
2024/01/08 07:56:10;;;;;;;5.67;5.27;;;-2.10;99.90;;;-1.75;68.03;98458.78;10449474;28;20234;-67
2024/01/08 08:01:16;;;;;;;5.63;5.23;;;-2.00;99.90;;;-1.79;69.52;98459.19;10427435;28;20237;-65
2024/01/08 08:06:19;;;;;;;5.90;5.43;;;-2.00;99.90;;;-1.73;68.19;98460.75;10432117;28;20221;-67
2024/01/08 08:11:23;;;;;;;6.07;5.57;;;-1.90;99.90;;;-1.71;70.37;98475.97;10429872;28;20231;-67
2024/01/08 08:16:28;;;;;;;6.03;5.57;;;-2.00;99.90;;;-1.78;69.30;98475.97;10431810;28;20248;-67
2024/01/08 08:21:32;;;;;;;5.87;5.27;;;-2.10;99.90;;;-1.52;67.97;98476.44;10432864;28;20222;-68
2024/01/08 08:26:36;;;;;;;5.80;5.30;;;-1.80;99.90;;;-1.72;69.03;98469.16;10434758;28;20238;-67
2024/01/08 08:31:41;;;;;;;6.40;5.87;;;-1.90;99.90;;;-1.87;69.37;98483.34;10434333;28;20271;-66
2024/01/08 08:36:44;;;;;;;6.17;5.77;;;-2.10;99.90;;;-1.95;68.57;98484.97;10466183;28;20212;-67
2024/01/08 08:41:47;;;;;;;6.67;5.30;;;-2.00;99.90;;;-1.88;71.01;98489.97;10486600;28;20232;-66
2024/01/08 08:46:52;;;;;;;5.80;5.30;;;-2.00;99.90;;;-1.76;69.20;98499.59;10485399;28;20600;-66
2024/01/08 08:51:55;;;;;;;6.03;5.53;;;-1.90;99.90;;;-1.72;69.98;98494.22;10484848;28;20231;-67
2024/01/08 08:56:58;;;;;;;6.57;5.97;;;-2.00;99.90;;;-1.78;70.31;98506.03;10489694;28;20232;-68
2024/01/08 09:02:03;;;;;;;6.13;5.43;;;-2.00;99.90;;;-1.51;67.24;98509.19;10488707;28;20231;-68
2024/01/08 09:07:07;;;;;;;6.77;6.17;;;-1.80;99.90;;;-1.60;68.58;98519.06;10461618;28;20231;-67
2024/01/08 09:12:10;;;;;;;5.90;5.17;;;-1.80;99.90;;;-1.53;68.94;98530.69;10445010;28;20268;-67
2024/01/08 09:17:14;;;;;;;5.90;5.40;;;-1.80;99.90;;;-1.32;68.23;98528.81;10432448;28;20228;-66
2024/01/08 09:22:18;;;;;;;6.00;5.40;;;-1.70;99.90;;;-1.01;68.70;98526.53;10426171;28;20225;-66
2024/01/08 09:27:21;;;;;;;6.17;5.57;;;-1.50;99.90;;;-0.90;67.85;98545.28;10407486;28;20794;-67
2024/01/08 09:32:26;;;;;;;7.07;6.37;;;-1.30;99.90;;;-1.40;67.49;98541.38;10425166;28;20722;-66
2024/01/08 09:37:29;;;;;;;6.10;5.50;;;-1.50;99.90;;;-1.11;nan;98553.81;10463904;28;20345;-66
2024/01/08 09:42:36;;;;;;;6.00;5.50;;;-1.30;99.90;;;-1.52;68.46;98551.63;10476151;28;20221;-67
2024/01/08 09:47:42;;;;;;;6.13;5.63;;;-1.70;99.90;;;-1.46;65.32;98555.75;10456784;28;20227;-68
2024/01/08 09:52:47;;;;;;;6.33;5.73;;;-1.70;99.90;;;-1.76;65.86;98545.59;10475544;28;20233;-67
2024/01/08 09:57:51;;;;;;;5.53;5.03;;;-1.80;99.90;;;-1.63;65.72;98551.31;10477223;28;20600;-68
2024/01/08 10:02:57;;;;;;;5.40;5.00;;;-1.70;99.90;;;-1.46;66.16;98552.31;10479474;28;20239;-67
2024/01/08 10:08:01;;;;;;;6.30;5.70;;;-1.70;99.90;;;-1.32;66.84;98546.38;10477258;28;20251;-68
2024/01/08 10:13:04;;;;;;;5.63;5.23;;;-1.60;99.90;;;-1.01;64.56;98536.56;10441853;28;20221;-68
2024/01/08 10:18:09;;;;;;;6.63;6.03;;;-1.40;99.90;;;-1.59;66.29;98540.00;10417513;28;21518;-68
2024/01/08 10:23:16;;;;;;;5.80;5.30;;;-1.60;99.90;;;-1.17;66.59;98543.09;10424910;28;20957;-67
2024/01/08 10:28:20;;;;;;;6.63;6.10;;;-1.40;99.90;;;-1.02;66.79;98532.28;10413467;28;20234;-67
2024/01/08 10:33:26;;;;;;;6.10;5.60;;;-1.40;99.90;;;-0.96;66.47;98530.44;10430021;28;20234;-68
2024/01/08 10:38:32;;;;;;;6.73;6.10;;;-1.30;99.90;;;-0.90;69.41;98535.25;10479201;28;20314;-68
2024/01/08 10:43:35;;;;;;;6.00;5.50;;;-1.20;99.90;;;-0.61;68.22;98540.97;10476776;28;20231;-69
2024/01/08 10:48:42;;;;;;;7.37;6.60;;;-1.00;99.90;;;-0.87;64.83;98533.06;10417951;28;20231;-67
2024/01/08 10:53:47;;;;;;;6.63;5.97;;;-1.00;99.90;;;-0.75;65.14;98531.03;10409830;28;20602;-67
2024/01/08 10:59:01;;;;;;;6.07;5.57;;;-1.10;99.90;;;-0.84;64.67;98532.53;10408122;28;20709;-66
2024/01/08 11:04:07;;;;;;;6.50;5.90;;;-1.10;99.90;;;-1.06;66.15;98544.28;10416838;28;20232;-67
2024/01/08 11:09:25;;;;;;;6.40;5.80;;;-1.10;99.90;;;-1.09;65.96;98517.25;10421795;28;20240;-67
2024/01/08 11:14:30;;;;;;;5.80;5.30;;;-1.30;99.90;;;-0.98;65.56;98508.41;10444400;28;20274;-67
2024/01/08 11:19:41;;;;;;;6.27;5.67;;;-1.20;99.90;;;-0.83;65.64;98516.75;10418971;28;20226;-66
2024/01/08 11:24:45;;;;;;;5.83;5.27;;;-1.10;99.90;;;-1.09;65.16;98517.25;10417282;28;21024;-67
2024/01/08 11:29:57;;;;;;;6.23;5.73;;;-1.30;99.90;;;-1.37;66.95;98511.66;10421800;28;20230;-67
2024/01/08 11:35:10;;;;;;;6.50;5.90;;;-1.40;99.90;;;-1.13;67.03;98507.59;10456914;28;20300;-67
2024/01/08 11:40:16;;;;;;;6.70;6.10;;;-1.40;99.90;;;-1.20;67.40;98507.66;10430444;28;20749;-67
2024/01/08 11:45:21;;;;;;;6.10;5.70;;;-1.30;99.90;;;-1.33;67.51;98515.38;10453700;28;20308;-67
2024/01/08 11:50:26;;;;;;;6.90;6.30;;;-1.40;99.90;;;-1.25;66.90;98509.63;10448807;28;20228;-67
2024/01/08 11:55:31;;;;;;;6.50;5.90;;;-1.40;99.90;;;-1.36;67.44;98515.03;10439103;28;20275;-67
2024/01/08 12:00:35;;;;;;;6.97;6.37;;;-1.40;99.90;;;-1.42;67.82;98512.75;10476462;28;20270;-67
2024/01/08 12:05:39;;;;;;;44.03;21.37;;;-1.50;99.90;;;-0.87;66.12;98507.09;10417411;28;20664;-65
2024/01/08 12:10:43;;;;;;;7.83;6.80;;;-1.20;99.90;;;-0.46;65.46;98506.63;10422220;28;20226;-68
2024/01/08 12:15:49;;;;;;;7.57;6.87;;;-0.80;99.90;;;-0.58;65.13;98502.78;10416919;28;20225;-67
2024/01/08 12:20:54;;;;;;;7.13;6.53;;;-0.80;99.90;;;-0.57;66.19;98495.44;10411954;28;20629;-67
2024/01/08 12:25:58;;;;;;;7.13;6.53;;;-0.90;99.90;;;-0.79;65.81;98501.31;10414699;28;20603;-66
2024/01/08 12:31:01;;;;;;;7.30;6.70;;;-0.90;99.90;;;-0.82;66.13;98495.97;10482280;28;21448;-66
2024/01/08 12:36:07;;;;;;;8.77;7.97;;;-1.00;99.90;;;-0.65;65.40;98501.22;10480094;28;20231;-67
2024/01/08 12:41:10;;;;;;;10.67;9.67;;;-0.90;99.90;;;-0.35;65.27;98486.09;10469663;28;20316;-67
2024/01/08 12:46:13;;;;;;;8.17;7.47;;;-0.70;99.90;;;-0.38;64.49;98499.94;10411158;28;20758;-67
2024/01/08 12:51:18;;;;;;;7.40;6.70;;;-0.60;99.90;;;-0.40;64.58;98498.88;10424188;28;20250;-66
2024/01/08 12:56:21;;;;;;;6.90;6.40;;;-0.70;99.90;;;-0.65;65.69;98503.72;10415009;28;20233;-66
2024/01/08 13:01:25;;;;;;;7.07;6.40;;;-0.90;99.90;;;-0.64;66.14;98494.59;10411858;28;20236;-66
2024/01/08 13:06:29;;;;;;;7.60;6.90;;;-0.90;99.90;;;-0.69;66.71;98491.56;10411034;28;20225;-65
2024/01/08 13:11:33;;;;;;;8.27;7.27;;;-1.00;99.90;;;-0.73;65.88;98479.41;10416793;28;20241;-66
2024/01/08 13:16:36;;;;;;;7.77;6.93;;;-0.90;99.90;;;-0.51;67.16;98488.56;10443629;28;20339;-65
2024/01/08 13:21:42;;;;;;;7.30;6.63;;;-0.80;99.90;;;-0.15;66.08;98494.91;10478404;28;20230;-66
2024/01/08 13:26:46;;;;;;;7.10;6.50;;;-0.60;99.90;;;-0.37;64.38;98497.63;10434068;28;20236;-66
2024/01/08 13:31:49;;;;;;;8.30;7.50;;;-0.60;99.90;;;-0.51;63.69;98498.63;10423584;28;22090;-66
2024/01/08 13:36:54;;;;;;;6.70;6.10;;;-0.70;99.90;;;-0.55;66.24;98514.03;10430431;28;20221;-66
2024/01/08 13:41:57;;;;;;;7.50;6.80;;;-0.80;99.90;;;-0.72;65.99;98493.72;10461358;28;20228;-66
2024/01/08 13:47:01;;;;;;;8.07;7.33;;;-0.90;99.90;;;-0.55;66.31;98495.59;10461095;28;20224;-66
2024/01/08 13:52:06;;;;;;;7.00;6.40;;;-0.80;99.90;;;-0.37;65.46;98502.63;10474907;28;20240;-67
2024/01/08 13:57:13;;;;;;;8.43;7.67;;;-0.60;99.90;;;-0.55;67.18;98516.56;10461464;28;20252;-66
2024/01/08 14:02:17;;;;;;;8.63;7.83;;;-0.70;99.90;;;-0.27;66.63;98520.47;10478670;28;20235;-67
2024/01/08 14:07:22;;;;;;;8.40;7.80;;;-0.60;99.90;;;-0.74;67.73;98527.81;10436053;28;20240;-66
2024/01/08 14:12:25;;;;;;;9.27;8.37;;;-0.90;99.90;;;-0.65;67.53;98515.41;10407069;28;20343;-65
2024/01/08 14:17:28;;;;;;;9.00;8.10;;;-0.80;99.90;;;-0.68;68.47;98536.91;10415089;28;20346;-66
2024/01/08 14:22:33;;;;;;;9.70;8.70;;;-1.00;99.90;;;-0.41;67.68;98539.78;10416061;28;20234;-66
2024/01/08 14:27:37;;;;;;;9.87;8.97;;;-0.90;99.90;;;-0.63;68.91;98546.56;10453902;28;20221;-68
2024/01/08 14:32:41;;;;;;;10.30;8.80;;;-0.90;99.90;;;-0.59;68.64;98546.19;10475348;28;20237;-67
2024/01/08 14:37:47;;;;;;;9.57;8.57;;;-0.90;99.90;;;-0.56;69.89;98539.88;10444545;28;20227;-67
2024/01/08 14:42:51;;;;;;;9.03;8.13;;;-1.00;99.90;;;-0.69;67.99;98546.78;10452609;28;20311;-67
2024/01/08 14:47:54;;;;;;;9.43;8.40;;;-1.00;99.90;;;-0.78;68.40;98558.31;10433751;28;20233;-67
2024/01/08 14:52:59;;;;;;;9.63;8.13;;;-1.10;99.90;;;-0.50;69.03;98552.22;10419123;28;21006;-67
2024/01/08 14:58:02;;;;;;;11.17;10.00;;;-1.00;99.90;;;-0.38;67.62;98560.22;10467728;28;20739;-66
2024/01/08 15:03:05;;;;;;;9.13;8.20;;;-0.80;99.90;;;-0.70;68.86;98557.53;10475285;28;20222;-66
2024/01/08 15:08:10;;;;;;;9.20;8.20;;;-1.00;99.90;;;-0.89;69.61;98561.22;10477826;28;20776;-66
2024/01/08 15:13:13;;;;;;;10.80;9.07;;;-1.20;99.90;;;-1.09;68.95;98557.38;10455513;28;20232;-65
2024/01/08 15:18:17;;;;;;;9.23;8.13;;;-1.20;99.90;;;-0.94;69.51;98566.63;10475253;28;20756;-65
2024/01/08 15:23:21;;;;;;;9.67;8.83;;;-1.20;99.90;;;-1.02;68.93;98582.44;10485313;28;20237;-65
2024/01/08 15:28:24;;;;;;;10.40;9.27;;;-1.30;99.90;;;-0.89;69.72;98574.66;10423100;28;20231;-66
2024/01/08 15:33:29;;;;;;;9.93;8.93;;;-1.30;99.90;;;-0.89;70.02;98591.34;10421397;28;20226;-66
2024/01/08 15:38:34;;;;;;;13.37;9.07;;;-1.20;99.90;;;-1.18;69.54;98586.44;10427078;28;20226;-64
2024/01/08 15:43:37;;;;;;;14.50;12.27;;;-1.40;99.90;;;-1.11;69.56;98586.41;10432467;28;20329;-65
2024/01/08 15:48:40;;;;;;;11.03;9.13;;;-1.30;99.90;;;-1.30;70.39;98580.91;10425725;28;20268;-65
2024/01/08 15:53:45;;;;;;;11.87;9.50;;;-1.50;99.90;;;-1.28;70.07;98591.13;10416238;28;20275;-66
2024/01/08 15:58:49;;;;;;;11.83;9.07;;;-1.60;99.90;;;-1.42;71.47;98605.50;10453139;28;20224;-67
2024/01/08 16:03:53;;;;;;;10.50;9.40;;;-1.60;99.90;;;-1.40;71.68;98611.59;10480610;28;20251;-65
2024/01/08 16:08:57;;;;;;;9.90;8.93;;;-1.70;99.90;;;-1.47;70.53;98620.72;10485628;28;20230;-64
2024/01/08 16:14:00;;;;;;;11.37;9.40;;;-1.70;99.90;;;-1.40;69.61;98628.25;10479962;28;20435;-64
2024/01/08 16:19:04;;;;;;;10.93;9.73;;;-1.60;99.90;;;-1.33;69.50;98634.84;10462304;28;20233;-64
2024/01/08 16:24:09;;;;;;;11.13;8.93;;;-1.70;99.90;;;-1.33;70.80;98639.84;10479587;28;20323;-66
2024/01/08 16:29:17;;;;;;;10.37;9.00;;;-1.70;99.90;;;-1.35;69.46;98644.69;10444441;28;20231;-65
2024/01/08 16:34:20;;;;;;;10.13;8.93;;;-1.70;99.90;;;-1.42;71.59;98645.59;10476868;28;20224;-65
2024/01/08 16:39:25;;;;;;;10.87;9.67;;;-1.70;99.90;;;-1.22;70.02;98647.00;10484456;28;20239;-65
2024/01/08 16:44:28;;;;;;;10.10;9.10;;;-1.60;99.90;;;-1.10;68.40;98655.03;10427953;28;20228;-64
2024/01/08 16:49:32;;;;;;;10.70;9.60;;;-1.30;99.90;;;-1.23;68.62;98650.19;10480564;28;20247;-65
2024/01/08 16:54:36;;;;;;;12.63;10.10;;;-1.50;99.90;;;-1.24;69.95;98651.81;10481104;28;20247;-64
2024/01/08 16:59:40;;;;;;;11.03;9.17;;;-1.60;99.90;;;-1.46;70.45;98652.56;10414973;28;20228;-63
2024/01/08 17:04:45;;;;;;;11.30;9.30;;;-1.70;99.90;;;-1.48;71.53;98657.44;10410884;28;20626;-64
2024/01/08 17:09:50;;;;;;;13.17;10.17;;;-1.80;99.90;;;-1.37;69.74;98664.56;10413635;28;20238;-64
2024/01/08 17:14:53;;;;;;;11.63;10.43;;;-1.60;99.90;;;-1.49;69.83;98657.22;10424371;28;20741;-64
2024/01/08 17:19:57;;;;;;;11.33;10.00;;;-1.70;99.90;;;-1.49;70.07;98668.16;10478345;28;20229;-64
2024/01/08 17:25:03;;;;;;;11.07;9.90;;;-1.70;99.90;;;-1.53;70.74;98675.16;10488651;28;20228;-64
2024/01/08 17:30:08;;;;;;;13.33;10.33;;;-1.80;99.90;;;-1.64;70.81;98677.28;10446114;28;20708;-65
2024/01/08 17:35:11;;;;;;;11.27;9.43;;;-1.90;99.90;;;-1.55;70.84;98677.47;10490168;28;20228;-65
2024/01/08 17:40:18;;;;;;;11.90;10.60;;;-1.90;99.90;;;-1.53;70.55;98681.06;10467276;28;20235;-64
2024/01/08 17:45:21;;;;;;;12.00;10.50;;;-1.70;99.90;;;-1.54;71.18;98688.41;10447889;28;20302;-64
2024/01/08 17:50:24;;;;;;;12.70;11.17;;;-1.80;99.90;;;-1.64;71.90;98686.44;10454114;28;20278;-64
2024/01/08 17:55:29;;;;;;;13.97;11.90;;;-1.90;99.90;;;-1.47;72.67;98681.75;10443581;28;20281;-65
2024/01/08 18:00:32;;;;;;;12.67;10.87;;;-1.80;99.90;;;-1.32;70.64;98696.78;10494318;28;20249;-65
2024/01/08 18:05:37;;;;;;;12.03;10.27;;;-1.70;99.90;;;-1.60;71.41;98698.63;10485942;28;20601;-65
2024/01/08 18:10:42;;;;;;;13.83;11.23;;;-1.90;99.90;;;-1.67;71.60;98699.50;10484493;28;20232;-65
2024/01/08 18:15:45;;;;;;;14.90;12.00;;;-1.90;99.90;;;-1.88;73.39;98702.00;10486921;28;20634;-66
2024/01/08 18:20:48;;;;;;;15.43;11.33;;;-2.10;99.90;;;-1.67;71.25;98706.13;10482506;28;20491;-66
2024/01/08 18:25:53;;;;;;;15.23;13.37;;;-1.90;99.90;;;-1.87;72.52;98729.72;10488910;28;20789;-65
2024/01/08 18:30:56;;;;;;;15.53;12.27;;;-2.10;99.90;;;-1.81;72.90;98720.41;10419991;28;20229;-66
2024/01/08 18:35:59;;;;;;;16.67;13.13;;;-2.10;99.90;;;-1.53;72.46;98720.28;10421159;28;20229;-66
2024/01/08 18:41:05;;;;;;;15.70;12.40;;;-1.90;99.90;;;-2.05;73.14;98722.53;10468996;28;20243;-66
2024/01/08 18:46:09;;;;;;;16.40;12.17;;;-2.10;99.90;;;-1.76;72.32;98720.06;10422939;28;20229;-66
2024/01/08 18:51:12;;;;;;;17.73;12.30;;;-2.00;99.90;;;-1.88;72.19;98725.44;10417041;28;20756;-66
2024/01/08 18:56:16;;;;;;;17.00;12.97;;;-2.20;99.90;;;-2.09;73.23;98735.38;10451864;28;20307;-66
2024/01/08 19:01:26;;;;;;;14.00;11.80;;;-2.40;99.90;;;-2.22;75.19;98734.66;10458873;28;20252;-66
2024/01/08 19:06:29;;;;;;;15.00;11.50;;;-2.40;99.90;;;-1.92;74.34;98734.91;10480970;28;20293;-66
2024/01/08 19:11:34;;;;;;;15.63;12.67;;;-2.30;99.90;;;-2.11;74.35;98739.34;10483727;28;20682;-66
2024/01/08 19:16:37;;;;;;;17.10;13.30;;;-2.50;99.90;;;-2.27;75.78;98742.50;10477954;28;20229;-66
2024/01/08 19:21:40;;;;;;;16.40;13.40;;;-2.60;99.90;;;-2.16;75.74;98735.38;10416387;28;20687;-66
2024/01/08 19:26:45;;;;;;;15.67;12.57;;;-2.60;99.90;;;-2.16;73.59;98735.38;10412088;28;20229;-66
2024/01/08 19:31:50;;;;;;;20.70;14.17;;;-2.60;99.90;;;-2.28;73.89;98738.22;10471256;28;20223;-66
2024/01/08 19:36:54;;;;;;;15.73;12.27;;;-2.60;99.90;;;-2.40;74.84;98736.75;10423943;28;20232;-65
2024/01/08 19:41:59;;;;;;;14.70;12.57;;;-2.70;99.90;;;-2.30;75.27;98742.13;10418818;28;20229;-66
2024/01/08 19:47:02;;;;;;;15.10;12.70;;;-2.70;99.90;;;-2.31;74.54;98751.97;10434153;28;20257;-66
2024/01/08 19:52:06;;;;;;;13.70;12.20;;;-2.70;99.90;;;-2.39;75.81;98752.66;10452002;28;20314;-65
2024/01/08 19:57:12;;;;;;;16.97;12.83;;;-2.70;99.90;;;-2.40;76.41;98761.78;10425980;28;20225;-65
2024/01/08 20:02:15;;;;;;;19.17;13.87;;;-2.80;99.90;;;-2.53;76.62;98759.38;10417603;28;20320;-66
2024/01/08 20:07:18;;;;;;;15.43;13.53;;;-2.90;99.90;;;-2.47;75.55;98779.25;10424135;28;20233;-65
2024/01/08 20:12:23;;;;;;;15.20;12.30;;;-2.90;99.90;;;-2.39;75.26;98776.06;10448651;28;20237;-66
2024/01/08 20:17:26;;;;;;;15.40;12.37;;;-2.80;99.90;;;-2.45;74.66;98770.31;10488637;28;20227;-65
2024/01/08 20:22:30;;;;;;;14.97;11.97;;;-2.80;99.90;;;-2.53;74.31;98771.00;10432490;28;20230;-65
2024/01/08 20:27:34;;;;;;;17.07;12.27;;;-2.90;99.90;;;-2.58;75.55;98772.03;10476889;28;20243;-65
2024/01/08 20:32:38;;;;;;;15.20;11.90;;;-3.00;99.90;;;-2.51;74.01;98777.09;10483489;28;20708;-65
2024/01/08 20:37:42;;;;;;;13.53;11.63;;;-3.00;99.90;;;-2.58;74.88;98784.56;10497455;28;20223;-66
2024/01/08 20:42:47;;;;;;;15.23;11.67;;;-3.10;99.90;;;-2.70;74.67;98783.94;10479415;28;21877;-65
2024/01/08 20:47:50;;;;;;;14.37;11.43;;;-3.10;99.90;;;-2.60;73.89;98793.50;10418577;28;20351;-65
2024/01/08 20:52:53;;;;;;;14.83;11.83;;;-3.00;99.90;;;-2.57;73.38;98787.25;10425606;28;20729;-65
2024/01/08 20:57:58;;;;;;;14.90;11.50;;;-3.00;99.90;;;-2.70;74.29;98786.47;10471432;28;20228;-66
2024/01/08 21:03:01;;;;;;;14.87;11.43;;;-3.10;99.90;;;-2.68;73.89;98791.66;10422081;28;20233;-65